Thursday, January 18, 2018, 11:01 PM EST
Back to Local

KWWD, Wildwood, Cape May County Airport

Location: Villas, NJ, United States Lat: 39.017
Local Time: 11:01 PM EST ( 4:01 GMT) Lon: -74.917
Time Zone: US/Eastern Elev: 22 ft

Show me the last for .
Show Decoded

2018-01-18 21:55 METAR KWWD 190255Z AUTO 00000KT 10SM CLR M06/M09 A3011 RMK AO2 SLP200 T10561089
                 51014 FZRANO =
2018-01-18 20:55 METAR KWWD 190155Z AUTO 00000KT 10SM CLR M04/M08 A3011 RMK AO2 SLP198 T10441083
                 FZRANO =
2018-01-18 18:55 METAR KWWD 182355Z AUTO 28004KT 10SM CLR M02/M07 A3007 RMK AO2 SLP187 T10171072
                 10011 21017 53021 FZRANO =
2018-01-18 17:55 METAR KWWD 182255Z AUTO 27005KT 10SM CLR M01/M07 A3006 RMK AO2 SLP180 T10111072
                 FZRANO =
2018-01-18 16:55 METAR KWWD 182155Z AUTO 28005KT 10SM CLR 00/M08 A3003 RMK AO2 SLP170 T00001078
                 FZRANO =
2018-01-18 15:55 METAR KWWD 182055Z AUTO 29009KT 10SM CLR 01/M09 A3001 RMK AO2 SLP165 T00111094
                 56004 FZRANO =
2018-01-18 14:55 METAR KWWD 181955Z AUTO 30011G17KT 10SM CLR 01/M09 A3002 RMK AO2 SLP166
                 T00061094 FZRANO =
2018-01-18 13:55 METAR KWWD 181855Z AUTO 30012G19KT 10SM CLR M01/M09 A3002 RMK AO2 SLP168
                 T10061094 FZRANO =
2018-01-18 12:55 METAR KWWD 181755Z AUTO 31012G18KT 10SM CLR M01/M10 A3002 RMK AO2 SLP169
                 T10111100 11011 21067 58036 FZRANO =
2018-01-18 11:55 METAR KWWD 181655Z AUTO 31014G23KT 10SM CLR M02/M09 A3006 RMK AO2 PRESFR SLP181
                 T10171094 FZRANO =
2018-01-18 10:55 METAR KWWD 181555Z AUTO 29013G18KT 10SM CLR M03/M11 A3013 RMK AO2 SLP205
                 T10281106 FZRANO =
2018-01-18 09:55 METAR KWWD 181455Z AUTO 32012G17KT 10SM CLR M04/M11 A3013 RMK AO2 SLP205
                 T10391111 50018 FZRANO =
2018-01-18 08:55 METAR KWWD 181355Z AUTO 32011G16KT 10SM CLR M05/M12 A3016 RMK AO2 SLP215
                 T10501117 FZRANO =
2018-01-18 07:55 METAR KWWD 181255Z AUTO 31011G17KT 10SM CLR M06/M12 A3015 RMK AO2 SLP213
                 T10611117 FZRANO =
2018-01-18 06:55 METAR KWWD 181155Z AUTO 33015G22KT 10SM CLR M07/M12 A3008 RMK AO2 SLP188 70001
                 T10671122 11050 21067 58005 FZRANO =
2018-01-18 05:55 METAR KWWD 181055Z AUTO 31011G16KT 10SM CLR M07/M12 A3013 RMK AO2 SLP204
                 T10671117 FZRANO =
2018-01-18 04:55 METAR KWWD 180955Z AUTO 33010G18KT 10SM CLR M07/M12 A3014 RMK AO2 SLP210
                 T10671117 FZRANO =
2018-01-18 03:55 METAR KWWD 180855Z AUTO 34012G23KT 10SM CLR M07/M12 A3009 RMK AO2 SLP192
                 T10671117 56036 FZRANO TSNO =
2018-01-18 02:55 METAR KWWD 180755Z AUTO 33011G19KT 10SM CLR M06/M11 A3013 RMK AO2 SLP207
                 T10611111 FZRANO =
2018-01-18 01:55 METAR KWWD 180655Z AUTO 34013G19KT 10SM CLR M06/M11 A3013 RMK AO2 SLP207
                 T10611111 FZRANO =
2018-01-18 00:55 METAR KWWD 180555Z AUTO 33011G17KT 10SM BKN080 M05/M11 A3020 RMK AO2 SLP228
                 T10501106 11039 21050 58014 FZRANO =
2018-01-17 23:55 METAR KWWD 180455Z AUTO 32012G16KT 10SM BKN075 OVC110 M04/M10 A3022 RMK AO2
                 SLP235 T10441100 400501044 FZRANO =

Support USWX by starting your Amazon purchase here.